INDIA METEOROLOGICAL DEPARTMENT, R.M.C. NEW DELHI
Dated:14 - 2 - 2016
METARS


Agartala   
VEAT 140730Z 31005KT 4000 HZ SCT020 30/17 Q1013 NOSIG=
Ahmedabad  
VAAH 140730Z 06006KT 5000 FU NSC 28/06 Q1015 NOSIG=
Amritsar   
VIAR 140730Z 30006KT 7000 NSC 19/09 Q1019 NOSIG=
Aurangabad 
VAAU 140600Z 05008KT 5000 HZ SCT020 28/13 Q1016=
Bangalore  
VOBL 140730Z 08010KT 030V120 CAVOK 32/11 Q1017 NOSIG=
Baroda     
VABO 140600Z 09002KT 6000 NSC 26/13 Q1016=
Bhopal     
VABP 140730Z 04006KT 6000 NSC 25/07 Q1016 NOSIG=
Bhubaneswar
VEBS 140730Z 21008KT 5000 HZ FEW020 34/20 Q1012 NOSIG =
Bhuntar    
VIBR 140600Z 00000KT 6000 FEW035 12/00 Q1022=
Chennai    
VOMM 140730Z 10007KT 6000 SCT020 30/20 Q1012 NOSIG=
Coimbatore 
VOCB 140730Z 08010KT 5000 HZ FEW015 31/14 Q1014 NOSIG=
Colombo    
VCBI 140740Z 27008KT 240V300 9000 FEW040 31/22 Q1010 NOSIG=
Delhi      
VIDP 140730Z 32009KT 2800 HZ NSC 22/07 Q1017 BECMG 3000=
Gauhati    
VEGT 140730Z 02006KT 2000 HZ FEW100 26/15 Q1013 NOSIG=
Gaya       
VEGY 140730Z 01005KT 3000 HZ NSC 29/12 Q1014 NOSIG=
Gaggal     
VIGG 140730Z 21002KT 5000 HZ FEW030 20/05 Q1019=
Hyderabad  
VOHS 140730Z 15009KT 6000 FEW020 SCT200 32/13 Q1015 NOSIG=
Imphal     
VEIM 140600Z 16007KT 4000 HZ FEW020 23/12 Q1017 NOSIG=
Indore     
VAID 140800Z 05004KT 5000 HZ NSC 25/07 Q1016=
Jabalpur   
VAJB 140600Z 36002KT 5000 HZ NSC 25/10 Q1017=
Jaipur     
VIJP 140730Z 23004KT 3000 HZ NSC 23/03 Q1018 NOSIG=
Khajuraho  
VEKO 140600Z 29003KT 4000 HZ NSC 26/10 Q1016=
Kochi      
VOCI 140730Z 29006KT 5000 HZ FEW015 33/23 Q1010 NOSIG=
Kolkata    
VECC 140730Z 16003KT 2500 FU SCT018 SCT100 27/23 Q1013 NOSIG=
Kozhikode  
VOCL 140730Z 27006KT 8000 SCT015 33/23 Q1010 NOSIG=
Lucknow    
VILK 140730Z 00000KT 3000 HZ NSC 29/12 Q1014 NOSIG=
Madurai    
VOMD 140730Z 08007KT 6000 FEW020 32/16 Q1012 NOSIG=
Mohanbari  
VEMN 140730Z 09005KT 4000 HZ FEW020 BKN100 23/14 Q1014 NOSIG=
Mumbai     
VABB 140700Z 31005KT 2800 FU NSC 30/09 Q1013 NOSIG=
Nagpur     
VANP 140730Z 10005KT 4000 HZ NSC 31/09 Q1014 NOSIG=
Pantnagar
VIPT 140730Z 27006KT 5000 HZ NSC 24/10 Q1016=
Patna      
VEPT 140730Z 03006KT 3000 HZ NSC 32/10 Q1012 NOSIG=
Raipur     
VERP 140730Z 24008KT 4000 HZ SCT100 30/18 Q1013 NOSIG=
Safdarjung
VIDD 140700Z 31010KT 3000 HZ NSC 22/11 Q1018 NOSIG=
Shimla    
VISM 140700Z 00000KT 6000 FEW040 15/04 Q1021=
Ranchi     
VERC 140730Z 27002KT 5000 HZ SCT018 SCT025 BKN100 30/16 Q1016 NOSIG =
Trichy     
VOTR 140730Z 07012KT 4000 HZ FEW016 31/19 Q1012 NOSIG=
Trivandrum 
VOTV 140730Z 22008KT 5000 HZ SCT015 32/24 Q1010 NOSIG=
Udaipur    
VAUD 140700Z 34003KT 5000 HZ NSC 21/10 Q1019 NOSIG=
Varanasi   
VEBN 140730Z 04004KT 4500 HZ NSC 27/13 Q1014=
Vizag      
VOVZ 140700Z 18006KT 6000 FEW018 32/21 Q1013 NOSIG =
Male       
VRMM 140700Z 36006KT 9999 FEW018 31/24 Q1014 NOSIG=
Kathmandu   
VNKT 140750Z 29010KT 9999 FEW025 21/M02 Q1019 NOSIG=
Dhaka      
VGHS 140730Z 26005KT 3500 HZ SCT100 28/14 Q1013 NOSIG=
Colombo     
VCBI 140740Z 27008KT 240V300 9000 FEW040 31/22 Q1010 NOSIG=
Karachi     
OPKC 140725Z 04005KT 6000 NSC 25/00 Q1019 NOSIG=
Lahore      
OPLA 140725Z 33005KT 6000 NSC 18/02 Q1019=
Leh        
VILH 140630Z VRB02KT 6000 FAIR FEW070 01/M21 Q1020 NOSIG RMK AC=
Thoise     
VITX 140730Z VRB02KT 6000 SCT120 04/M22 Q1020 NOSIG=
Sri Nagar  
VISR 140630Z 34003KT 6000 sct030 bkn090 07/-01 Q1024 NOSIG=
Jodhpur    
VIJO 140700Z 03008KT 6000 SKC 22/03 Q1018 NOSIG=
Gwalior    
VIGR 140700Z 32003KT 2500 HZ NSC 23/12 Q1017=
Pune       
VAPO 140730Z 12005KT 6000 SKC 30/09 Q1016 NOSIG=
Chandigarh 
VICG 140730Z 21004KT 6000 SKC 24/06 Q1018 NOSIG=